Bend, OR

10:33 AM PST on February 07, 2016 (GMT -0800)
East Bend | | Change Station
CLOSE
Current Station
Personal Weather Station
Location: Bend, OR
Elevation: 3615 ft
Nearby Weather Stations

Elev 3615 ft 44.06 °N, 121.27 °W | Updated 40 seconds ago

Clear
Clear
48.2 °F
Feels Like 47 °F
N
4.0
Wind Variable Wind from SSW
Gusts 8.0 mph

Today
High -- | Low -- °F
--% Chance of Precip.
Yesterday
High -- | Low -- °F
Precip. -- in
Pressure 30.56 in
Visibility 10.0 miles
Clouds Clear
Windchill 47 °F
Dew Point 40 °F
Humidity 72%
Rainfall 0.00 in
Snow Depth Not available.
7:15 AM 5:23 PM
Waning Crescent, 1% visible
METAR KBDN 071815Z AUTO 12004KT 10SM CLR 06/02 A3056 RMK AO2
Pressure 30.56 in
Visibility 10.0 miles
Clouds Clear
Windchill 47 °F
Dew Point 40 °F
Humidity 72%
Rainfall 0.00 in
Snow Depth Not available.
7:15 AM 5:23 PM
Waning Crescent, 1% visible
METAR KBDN 071815Z AUTO 12004KT 10SM CLR 06/02 A3056 RMK AO2

10-Day Weather Forecast

Almanac

Astronomy

Feb. 07, 2016 Rise Set
Actual Time
Civil Twilight
Nautical Twilight
Astronomical Twilight
Moon
Length of Visible Light
Length of Day
Tomorrow will be .
, % of the Moon is Illuminated

Today's Extremes

State Highs State Lows

Community

WunderPhotos

Upload Photos

1,891,280 photos uploaded!

WunderBlog® & News

Nearby

Air Quality

  Air Quality AQ Index Pollutant
Not available.

Snow Depth

Station Depth Elevation

Earthquake Activity

City Distance Mag. Time & Date
Minimum magnitude displayed is 2.5.

Coastal Water Temperatures

Place Temperature

Stations

Nearby Weather Stations

Station Location Temp. Windchill Dew Point Humidity Wind Precip. Elev Updated Type
                   

Watches & Warnings

There are currently no watches in effect.